createdAt,value
2023-04-19T00:01:49.420Z,1.00
2023-04-19T00:04:17.576Z,99.90
2023-04-19T00:06:47.195Z,1.00
2023-04-19T00:09:15.091Z,99.90
2023-04-19T00:11:42.987Z,99.90
2023-04-19T00:14:10.843Z,99.90
2023-04-19T00:16:38.728Z,24.00
2023-04-19T00:19:08.389Z,1.00
2023-04-19T00:21:36.254Z,1.00
2023-04-19T00:24:04.543Z,1.00
2023-04-19T00:26:32.426Z,1.00
2023-04-19T00:29:00.528Z,1.00
2023-04-19T00:31:28.420Z,99.90
2023-04-19T00:33:56.407Z,99.90
2023-04-19T00:36:26.652Z,1.00
2023-04-19T00:38:54.543Z,1.00
2023-04-19T00:41:22.434Z,1.00
2023-04-19T00:43:50.348Z,1.00
2023-04-19T00:46:18.323Z,1.00
2023-04-19T00:48:46.270Z,1.00
2023-04-19T00:51:14.651Z,1.00
2023-04-19T00:53:44.872Z,1.00
2023-04-19T00:56:14.612Z,1.00
2023-04-19T00:58:42.691Z,1.00
2023-04-19T01:01:10.754Z,1.00
2023-04-19T01:03:38.829Z,1.00
2023-04-19T01:06:07.108Z,1.00
2023-04-19T01:08:34.938Z,1.00
2023-04-19T01:11:04.361Z,1.00
2023-04-19T01:13:32.280Z,1.00
2023-04-19T01:16:00.600Z,1.00
2023-04-19T01:18:32.742Z,1.00
2023-04-19T01:21:00.719Z,1.00
2023-04-19T01:23:30.027Z,1.00
2023-04-19T01:25:57.948Z,1.00
2023-04-19T01:28:25.879Z,1.00
2023-04-19T01:30:54.040Z,1.00
2023-04-19T01:33:21.983Z,1.00
2023-04-19T01:35:50.683Z,1.00
2023-04-19T01:38:18.849Z,1.00
2023-04-19T01:40:48.116Z,1.00
2023-04-19T01:43:18.603Z,1.00
2023-04-19T01:45:46.559Z,1.00
2023-04-19T01:48:14.443Z,1.00
2023-04-19T01:50:42.351Z,1.00
2023-04-19T01:53:10.200Z,1.00
2023-04-19T01:55:38.087Z,1.00
2023-04-19T01:58:07.334Z,1.00
2023-04-19T02:00:35.242Z,1.00
2023-04-19T02:03:03.337Z,1.00
2023-04-19T02:05:31.480Z,1.00
2023-04-19T02:08:01.225Z,1.00
2023-04-19T02:10:29.096Z,1.00
2023-04-19T02:12:56.955Z,1.00
2023-04-19T02:15:26.326Z,1.00
2023-04-19T02:17:54.229Z,1.00
2023-04-19T02:20:22.215Z,1.00
2023-04-19T02:22:50.097Z,1.00
2023-04-19T02:25:19.422Z,1.00
2023-04-19T02:27:47.285Z,1.00
2023-04-19T02:30:15.618Z,1.00
2023-04-19T02:32:44.872Z,1.00
2023-04-19T02:35:13.901Z,1.00
2023-04-19T02:37:41.772Z,1.00
2023-04-19T02:40:10.274Z,1.00
2023-04-19T02:42:38.178Z,1.00
2023-04-19T02:45:06.986Z,1.00
2023-04-19T02:47:34.868Z,1.00
2023-04-19T02:50:04.245Z,1.00
2023-04-19T02:52:32.141Z,1.00
2023-04-19T02:55:00.095Z,1.00
2023-04-19T02:57:27.987Z,1.00
2023-04-19T02:59:55.844Z,1.00
2023-04-19T03:02:23.812Z,1.00
2023-04-19T03:04:52.955Z,1.00
2023-04-19T03:07:22.278Z,1.00
2023-04-19T03:09:50.897Z,1.00
2023-04-19T03:12:18.808Z,1.00
2023-04-19T03:14:46.643Z,1.00
2023-04-19T03:17:14.493Z,1.00
2023-04-19T03:19:42.338Z,1.00
2023-04-19T03:22:10.175Z,1.00
2023-04-19T03:24:39.382Z,1.00
2023-04-19T03:27:07.271Z,1.00
2023-04-19T03:29:35.138Z,1.00
2023-04-19T03:32:03.077Z,1.00
2023-04-19T03:34:31.001Z,1.00
2023-04-19T03:36:58.867Z,1.00
2023-04-19T03:39:26.767Z,1.00
2023-04-19T03:41:56.001Z,1.00
2023-04-19T03:44:23.866Z,1.00
2023-04-19T03:46:51.768Z,1.00
2023-04-19T03:49:19.655Z,1.00
2023-04-19T03:51:47.522Z,1.90
2023-04-19T03:54:15.837Z,67.30
2023-04-19T03:56:43.901Z,99.90
2023-04-19T03:59:13.168Z,99.90
2023-04-19T04:01:42.168Z,99.90
2023-04-19T04:04:11.841Z,99.90
2023-04-19T04:06:39.908Z,99.90
2023-04-19T04:09:07.827Z,1.00
2023-04-19T04:11:35.721Z,1.00
2023-04-19T04:14:03.640Z,1.00
2023-04-19T04:16:32.933Z,1.00
2023-04-19T04:19:00.860Z,1.00
2023-04-19T04:21:28.714Z,1.00
2023-04-19T04:23:56.920Z,92.20
2023-04-19T04:26:25.532Z,99.90
2023-04-19T04:28:53.712Z,99.90
2023-04-19T04:31:21.603Z,99.90
2023-04-19T04:33:50.923Z,1.00
2023-04-19T04:36:18.805Z,1.00
2023-04-19T04:38:46.663Z,1.00
2023-04-19T04:41:14.687Z,1.00
2023-04-19T04:43:42.564Z,1.00
2023-04-19T04:46:10.516Z,99.90
2023-04-19T04:48:38.399Z,99.90
2023-04-19T04:51:07.733Z,99.90
2023-04-19T04:53:35.609Z,1.00
2023-04-19T04:56:03.482Z,1.00
2023-04-19T04:58:31.407Z,1.00
2023-04-19T05:00:59.544Z,1.00
2023-04-19T05:03:28.046Z,1.00
2023-04-19T05:05:56.517Z,1.00
2023-04-19T05:08:26.745Z,1.00
2023-04-19T05:10:54.637Z,1.00
2023-04-19T05:13:22.504Z,99.90
2023-04-19T05:15:50.388Z,99.90
2023-04-19T05:18:18.295Z,1.00
2023-04-19T05:20:46.798Z,1.00
2023-04-19T05:23:14.751Z,1.00
2023-04-19T05:25:44.003Z,99.90
2023-04-19T05:28:11.882Z,99.90
2023-04-19T05:30:39.831Z,99.90
2023-04-19T05:33:07.740Z,55.90
2023-04-19T05:35:35.694Z,52.60
2023-04-19T05:38:03.821Z,1.00
2023-04-19T05:40:31.731Z,1.00
2023-04-19T05:43:00.993Z,1.00
2023-04-19T05:45:28.859Z,1.00
2023-04-19T05:47:56.763Z,1.00
2023-04-19T05:50:24.768Z,99.90
2023-04-19T05:52:52.754Z,99.90
2023-04-19T05:55:20.796Z,99.90
2023-04-19T05:57:48.988Z,99.90
2023-04-19T06:00:19.029Z,66.90
2023-04-19T06:02:47.186Z,1.00
2023-04-19T06:05:15.275Z,1.00
2023-04-19T06:07:50.646Z,1.00
2023-04-19T06:10:23.643Z,1.00
2023-04-19T06:12:51.556Z,1.00
2023-04-19T06:15:20.866Z,1.00
2023-04-19T06:17:48.773Z,1.00
2023-04-19T06:20:16.806Z,1.00
2023-04-19T06:22:46.281Z,1.00
2023-04-19T06:25:15.003Z,1.00
2023-04-19T06:27:42.904Z,1.00
2023-04-19T06:30:11.166Z,1.00
2023-04-19T06:32:40.474Z,1.00
2023-04-19T06:35:09.523Z,1.00
2023-04-19T06:37:37.488Z,1.00
2023-04-19T06:40:08.392Z,1.00
2023-04-19T06:42:36.424Z,1.00
2023-04-19T06:45:04.813Z,1.00
2023-04-19T06:47:35.460Z,1.00
2023-04-19T06:50:05.557Z,1.00
2023-04-19T06:52:33.424Z,1.00
2023-04-19T06:55:01.300Z,1.00
2023-04-19T06:57:29.150Z,1.00
2023-04-19T06:59:58.213Z,1.00
2023-04-19T07:02:26.315Z,1.00
2023-04-19T07:04:54.437Z,1.00
2023-04-19T07:07:23.666Z,1.00
2023-04-19T07:09:51.519Z,1.00
2023-04-19T07:12:19.526Z,1.00
2023-04-19T07:14:47.444Z,1.00
2023-04-19T07:17:15.404Z,1.00
2023-04-19T07:19:43.351Z,1.00
2023-04-19T07:22:12.658Z,1.00
2023-04-19T07:24:44.497Z,1.00
2023-04-19T07:27:14.343Z,1.00
2023-04-19T07:29:42.230Z,1.00
2023-04-19T07:32:10.420Z,1.00
2023-04-19T07:34:38.864Z,1.00
2023-04-19T07:37:06.748Z,1.00
2023-04-19T07:39:34.762Z,1.00
2023-04-19T07:42:04.307Z,1.00
2023-04-19T07:44:32.368Z,39.90
2023-04-19T07:47:00.390Z,99.90
2023-04-19T07:49:29.284Z,1.00
2023-04-19T07:51:57.147Z,1.00
2023-04-19T07:54:25.064Z,99.90
2023-04-19T07:56:52.969Z,99.90
2023-04-19T07:59:22.226Z,40.40
2023-04-19T08:01:50.751Z,1.00
2023-04-19T08:04:20.555Z,1.00
2023-04-19T08:06:48.941Z,1.00
2023-04-19T08:09:16.872Z,1.00
2023-04-19T08:11:44.806Z,99.90
2023-04-19T08:14:22.212Z,1.00
2023-04-19T08:19:31.029Z,1.00
2023-04-19T08:21:58.912Z,1.00
2023-04-19T08:24:26.972Z,1.00
2023-04-19T08:26:54.988Z,99.90
2023-04-19T08:29:23.172Z,1.00
2023-04-19T08:31:51.320Z,1.00
2023-04-19T08:34:20.589Z,1.00
2023-04-19T08:37:00.042Z,99.90
2023-04-19T08:39:32.924Z,1.00
2023-04-19T08:42:11.045Z,99.90
2023-04-19T08:47:30.026Z,1.00
2023-04-19T08:50:11.177Z,1.00
2023-04-19T08:52:54.917Z,1.00
2023-04-19T08:55:25.318Z,1.00
2023-04-19T08:57:53.208Z,99.90
2023-04-19T09:00:22.314Z,1.00
2023-04-19T09:02:52.079Z,99.90
2023-04-19T09:05:22.354Z,1.00
2023-04-19T09:07:50.436Z,1.00
2023-04-19T09:10:19.392Z,1.00
2023-04-19T09:13:02.095Z,99.90
2023-04-19T09:15:41.555Z,99.90
2023-04-19T09:18:11.586Z,1.00
2023-04-19T09:20:42.460Z,99.90
2023-04-19T09:23:13.440Z,1.00
2023-04-19T09:25:55.372Z,1.00
2023-04-19T09:28:29.842Z,1.00
2023-04-19T09:31:03.492Z,99.90
2023-04-19T09:33:39.864Z,1.00
2023-04-19T09:36:10.221Z,99.90
2023-04-19T09:38:48.932Z,1.00
2023-04-19T09:41:18.351Z,99.90
2023-04-19T09:44:02.294Z,99.90
2023-04-19T09:46:36.223Z,1.00
2023-04-19T09:49:27.790Z,99.90
2023-04-19T09:52:11.239Z,99.90
2023-04-19T09:54:39.878Z,1.00
2023-04-19T09:57:08.242Z,1.00
2023-04-19T09:59:36.205Z,1.00
2023-04-19T10:02:06.048Z,1.00
2023-04-19T10:04:57.100Z,99.90
2023-04-19T10:07:30.889Z,1.00
2023-04-19T10:10:11.653Z,99.90
2023-04-19T10:15:22.592Z,1.00
2023-04-19T10:17:50.844Z,1.00
2023-04-19T10:20:23.960Z,1.00
2023-04-19T10:22:53.884Z,1.00
2023-04-19T10:25:30.635Z,1.00
2023-04-19T10:27:59.215Z,99.90
2023-04-19T10:30:28.002Z,99.90
2023-04-19T10:32:57.626Z,69.60
2023-04-19T10:35:29.317Z,1.00
2023-04-19T10:38:09.412Z,99.90
2023-04-19T10:40:57.035Z,99.90
2023-04-19T10:43:25.507Z,1.00
2023-04-19T10:45:53.630Z,1.00
2023-04-19T10:48:39.098Z,99.90
2023-04-19T10:51:14.456Z,99.90
2023-04-19T10:53:51.970Z,1.00
2023-04-19T10:56:21.934Z,1.00
2023-04-19T10:59:24.048Z,99.90
2023-04-19T11:01:57.246Z,99.90
2023-04-19T11:05:06.926Z,99.90
2023-04-19T11:07:41.924Z,1.00
2023-04-19T11:10:12.516Z,1.00
2023-04-19T11:12:44.805Z,1.00
2023-04-19T11:15:12.857Z,1.00
2023-04-19T11:17:42.452Z,1.00
2023-04-19T11:20:11.718Z,1.00
2023-04-19T11:22:41.218Z,1.00
2023-04-19T11:25:12.964Z,1.00
2023-04-19T11:27:42.879Z,1.00
2023-04-19T11:30:12.904Z,1.00
2023-04-19T11:32:47.050Z,99.90
2023-04-19T11:35:15.813Z,1.00
2023-04-19T11:37:43.688Z,99.90
2023-04-19T11:40:16.613Z,99.90
2023-04-19T11:42:44.562Z,99.90
2023-04-19T11:45:25.853Z,99.90
2023-04-19T11:47:57.456Z,99.90
2023-04-19T11:50:36.411Z,99.90
2023-04-19T11:53:16.332Z,99.90
2023-04-19T11:55:51.108Z,99.90
2023-04-19T11:58:28.975Z,99.90
2023-04-19T12:00:58.211Z,99.90
2023-04-19T12:03:26.924Z,99.90
2023-04-19T12:05:56.324Z,99.90
2023-04-19T12:08:35.122Z,99.90
2023-04-19T12:11:05.736Z,99.90
2023-04-19T12:13:34.151Z,99.90
2023-04-19T12:16:02.457Z,99.90
2023-04-19T12:18:45.143Z,99.90
2023-04-19T12:21:24.616Z,99.90
2023-04-19T12:23:55.460Z,99.90
2023-04-19T12:26:24.744Z,99.90
2023-04-19T12:28:52.661Z,99.90
2023-04-19T12:31:20.864Z,99.90
2023-04-19T12:33:49.458Z,99.90
2023-04-19T12:36:17.488Z,99.90
2023-04-19T12:38:45.404Z,99.90
2023-04-19T12:41:13.293Z,99.90
2023-04-19T12:43:42.520Z,99.90
2023-04-19T12:46:10.457Z,99.90
2023-04-19T12:48:38.355Z,99.90
2023-04-19T12:51:06.689Z,99.90
2023-04-19T12:53:34.544Z,99.90
2023-04-19T12:56:02.433Z,99.90
2023-04-19T12:58:30.333Z,99.90
2023-04-19T13:00:59.731Z,99.90
2023-04-19T13:03:32.796Z,99.90
2023-04-19T13:06:00.962Z,99.90
2023-04-19T13:08:44.303Z,99.90
2023-04-19T13:11:14.636Z,99.90
2023-04-19T13:13:42.661Z,99.90
2023-04-19T13:16:11.982Z,99.90
2023-04-19T13:18:39.930Z,99.90
2023-04-19T13:21:08.597Z,99.90
2023-04-19T13:23:36.841Z,99.90
2023-04-19T13:26:04.776Z,99.90
2023-04-19T13:28:35.547Z,99.90
2023-04-19T13:31:04.296Z,99.90
2023-04-19T13:33:33.655Z,99.90
2023-04-19T13:36:01.733Z,99.90
2023-04-19T13:38:29.655Z,99.90
2023-04-19T13:40:57.650Z,99.90
2023-04-19T13:43:25.645Z,99.90
2023-04-19T13:45:53.820Z,99.90
2023-04-19T13:48:22.019Z,99.90
2023-04-19T13:50:52.452Z,99.90
2023-04-19T13:53:20.368Z,99.90
2023-04-19T13:55:48.270Z,99.90
2023-04-19T13:58:16.152Z,99.90
2023-04-19T14:00:44.070Z,99.90
2023-04-19T14:03:12.445Z,99.90
2023-04-19T14:05:40.750Z,99.90
2023-04-19T14:08:10.195Z,99.90
2023-04-19T14:10:38.323Z,99.90
2023-04-19T14:13:06.262Z,99.90
2023-04-19T14:15:34.146Z,99.90
2023-04-19T14:18:02.068Z,99.90
2023-04-19T14:20:30.061Z,99.90
2023-04-19T14:23:00.225Z,99.90
2023-04-19T14:25:29.505Z,99.90
2023-04-19T14:27:57.359Z,99.90
2023-04-19T14:30:26.197Z,99.90
2023-04-19T14:32:54.291Z,99.90
2023-04-19T14:35:22.755Z,99.90
2023-04-19T14:37:50.742Z,99.90
2023-04-19T14:40:20.028Z,99.90
2023-04-19T14:42:49.434Z,99.90
2023-04-19T14:45:17.329Z,99.90
2023-04-19T14:47:45.244Z,99.90
2023-04-19T14:50:13.205Z,99.90
2023-04-19T14:52:41.440Z,99.90
2023-04-19T14:55:10.786Z,99.90
2023-04-19T14:57:38.714Z,99.90
2023-04-19T15:00:09.609Z,99.90
2023-04-19T15:02:37.956Z,99.90
2023-04-19T15:05:07.015Z,99.90
2023-04-19T15:07:35.013Z,99.90
2023-04-19T15:10:02.948Z,99.90
2023-04-19T15:12:30.819Z,99.90
2023-04-19T15:14:58.825Z,99.90
2023-04-19T15:17:28.119Z,99.90
2023-04-19T15:19:56.079Z,99.90
2023-04-19T15:22:23.930Z,99.90
2023-04-19T15:24:51.845Z,99.90
2023-04-19T15:27:19.753Z,99.90
2023-04-19T15:29:48.324Z,99.90
2023-04-19T15:32:16.247Z,99.90
2023-04-19T15:34:45.496Z,99.90
2023-04-19T15:37:13.449Z,99.90
2023-04-19T15:39:41.324Z,99.90
2023-04-19T15:42:09.239Z,99.90
2023-04-19T15:44:37.192Z,99.90
2023-04-19T15:47:05.236Z,99.90
2023-04-19T15:49:33.082Z,99.90
2023-04-19T15:52:02.386Z,99.90
2023-04-19T15:54:30.763Z,99.90
2023-04-19T15:56:58.812Z,99.90
2023-04-19T15:59:26.777Z,99.90
2023-04-19T16:01:55.929Z,99.90
2023-04-19T16:04:24.074Z,99.90
2023-04-19T16:06:52.133Z,99.90
2023-04-19T16:09:23.236Z,99.90
2023-04-19T16:11:51.198Z,99.90
2023-04-19T16:14:19.069Z,99.90
2023-04-19T16:16:47.144Z,99.90
2023-04-19T16:19:15.457Z,99.90
2023-04-19T16:21:43.522Z,99.90
2023-04-19T16:24:11.408Z,99.90
2023-04-19T16:26:40.635Z,99.90
2023-04-19T16:29:08.547Z,99.90
2023-04-19T16:31:36.468Z,99.90
2023-04-19T16:34:04.357Z,99.90
2023-04-19T16:36:32.549Z,99.90
2023-04-19T16:39:01.405Z,99.90
2023-04-19T16:41:29.302Z,99.90
2023-04-19T16:43:58.543Z,99.90
2023-04-19T16:46:26.514Z,99.90
2023-04-19T16:48:54.488Z,99.90
2023-04-19T16:51:22.584Z,99.90
2023-04-19T16:53:50.566Z,99.90
2023-04-19T16:56:19.410Z,99.90
2023-04-19T16:58:47.510Z,99.90
2023-04-19T17:01:16.830Z,99.90
2023-04-19T17:03:46.518Z,99.90
2023-04-19T17:06:14.624Z,99.90
2023-04-19T17:08:42.564Z,99.90
2023-04-19T17:11:10.498Z,99.90
2023-04-19T17:13:38.693Z,99.90
2023-04-19T17:16:07.406Z,99.90
2023-04-19T17:18:36.650Z,99.90
2023-04-19T17:21:04.736Z,99.90
2023-04-19T17:23:32.672Z,99.90
2023-04-19T17:26:00.583Z,99.90
2023-04-19T17:28:28.603Z,99.90
2023-04-19T17:30:56.525Z,99.90
2023-04-19T17:33:24.780Z,99.90
2023-04-19T17:35:54.005Z,99.90
2023-04-19T17:38:21.954Z,98.60
2023-04-19T17:40:49.814Z,99.10
2023-04-19T17:43:17.717Z,99.90
2023-04-19T17:45:45.617Z,99.90
2023-04-19T17:48:13.648Z,99.90
2023-04-19T17:50:41.597Z,98.70
2023-04-19T17:53:10.791Z,99.90
2023-04-19T17:55:38.774Z,98.70
2023-04-19T17:58:06.687Z,99.90
2023-04-19T18:00:34.853Z,99.90
2023-04-19T18:03:02.846Z,99.90
2023-04-19T18:05:30.882Z,99.90
2023-04-19T18:07:58.858Z,98.40
2023-04-19T18:10:28.355Z,98.40
2023-04-19T18:12:56.268Z,99.90
2023-04-19T18:15:24.160Z,99.70
2023-04-19T18:17:52.168Z,99.70
2023-04-19T18:20:20.868Z,99.90
2023-04-19T18:22:49.856Z,97.70
2023-04-19T18:25:17.926Z,95.70
2023-04-19T18:27:47.180Z,99.30
2023-04-19T18:30:15.301Z,99.90
2023-04-19T18:32:43.218Z,97.00
2023-04-19T18:35:12.108Z,99.90
2023-04-19T18:37:40.032Z,98.20
2023-04-19T18:40:09.304Z,98.40
2023-04-19T18:42:37.197Z,98.30
2023-04-19T18:45:07.760Z,99.80
2023-04-19T18:47:35.889Z,99.00
2023-04-19T18:50:06.255Z,98.30
2023-04-19T18:52:36.084Z,99.80
2023-04-19T18:55:04.620Z,99.50
2023-04-19T18:57:34.603Z,99.90
2023-04-19T19:00:05.802Z,99.90
2023-04-19T19:02:36.996Z,99.90
2023-04-19T19:05:08.305Z,99.90
2023-04-19T19:07:37.803Z,99.90
2023-04-19T19:10:18.478Z,99.90
2023-04-19T19:12:48.785Z,99.90
2023-04-19T19:15:16.952Z,99.90
2023-04-19T19:17:49.884Z,99.90
2023-04-19T19:20:18.788Z,99.90
2023-04-19T19:22:46.839Z,99.90
2023-04-19T19:25:14.749Z,99.40
2023-04-19T19:27:58.194Z,99.00
2023-04-19T19:30:33.554Z,98.10
2023-04-19T19:33:04.757Z,96.90
2023-04-19T19:35:33.121Z,98.50
2023-04-19T19:38:01.009Z,98.30
2023-04-19T19:40:30.993Z,99.90
2023-04-19T19:42:59.256Z,99.90
2023-04-19T19:45:28.702Z,99.90
2023-04-19T19:47:58.838Z,99.90
2023-04-19T19:53:00.144Z,99.90
2023-04-19T19:55:28.399Z,99.90
2023-04-19T20:02:58.992Z,99.90
2023-04-19T20:05:28.922Z,98.30
2023-04-19T20:08:08.065Z,97.50
2023-04-19T20:10:37.282Z,96.80
2023-04-19T20:13:06.196Z,97.30
2023-04-19T20:15:34.480Z,98.80
2023-04-19T20:18:03.332Z,97.40
2023-04-19T20:20:32.981Z,96.50
2023-04-19T20:23:00.913Z,97.30
2023-04-19T20:25:30.999Z,97.60
2023-04-19T20:27:59.138Z,99.90
2023-04-19T20:30:27.129Z,98.50
2023-04-19T20:32:55.106Z,99.90
2023-04-19T20:35:23.218Z,99.50
2023-04-19T20:37:52.457Z,99.70
2023-04-19T20:40:20.340Z,98.50
2023-04-19T20:42:48.463Z,99.90
2023-04-19T20:45:16.328Z,99.90
2023-04-19T20:47:44.223Z,99.90
2023-04-19T20:50:12.404Z,99.90
2023-04-19T20:52:40.443Z,99.90
2023-04-19T20:55:10.519Z,99.90
2023-04-19T20:57:38.381Z,99.90
2023-04-19T21:00:09.289Z,99.90
2023-04-19T21:02:37.446Z,99.90
2023-04-19T21:05:05.963Z,98.50
2023-04-19T21:07:33.867Z,99.80
2023-04-19T21:10:01.734Z,99.90
2023-04-19T21:12:31.005Z,96.80
2023-04-19T21:14:58.899Z,98.20
2023-04-19T21:17:27.057Z,98.70
2023-04-19T21:19:55.064Z,98.00
2023-04-19T21:22:22.941Z,98.70
2023-04-19T21:24:50.837Z,99.80
2023-04-19T21:27:18.728Z,98.30
2023-04-19T21:29:47.919Z,99.90
2023-04-19T21:32:15.760Z,99.10
2023-04-19T21:34:44.611Z,99.90
2023-04-19T21:37:12.447Z,98.70
2023-04-19T21:39:40.356Z,99.90
2023-04-19T21:42:08.189Z,99.90
2023-04-19T21:44:36.124Z,98.90
2023-04-19T21:47:05.432Z,97.90
2023-04-19T21:49:33.448Z,99.90
2023-04-19T21:52:01.313Z,97.90
2023-04-19T21:54:33.992Z,97.30
2023-04-19T21:57:02.688Z,97.70
2023-04-19T21:59:31.323Z,97.50
2023-04-19T22:02:00.047Z,95.60
2023-04-19T22:04:30.676Z,96.10
2023-04-19T22:07:01.992Z,96.90
2023-04-19T22:09:30.504Z,96.30
2023-04-19T22:11:58.388Z,93.70
2023-04-19T22:14:26.310Z,95.20
2023-04-19T22:16:54.859Z,95.20
2023-04-19T22:19:24.360Z,94.80
2023-04-19T22:21:55.000Z,95.10
2023-04-19T22:24:22.974Z,95.20
2023-04-19T22:26:52.929Z,94.80
2023-04-19T22:29:21.253Z,97.60
2023-04-19T22:31:49.333Z,95.80
2023-04-19T22:34:17.293Z,96.50
2023-04-19T22:36:45.382Z,97.20
2023-04-19T22:39:15.799Z,97.20
2023-04-19T22:41:43.924Z,97.70
2023-04-19T22:44:11.774Z,96.60
2023-04-19T22:46:39.870Z,99.50
2023-04-19T22:49:08.424Z,99.90
2023-04-19T22:51:36.683Z,99.90
2023-04-19T22:54:04.905Z,99.90
2023-04-19T22:56:34.155Z,99.90
2023-04-19T22:59:02.008Z,99.90
2023-04-19T23:01:29.897Z,99.90
2023-04-19T23:03:57.868Z,99.90
2023-04-19T23:06:25.849Z,99.90
2023-04-19T23:08:53.811Z,99.90
2023-04-19T23:11:24.749Z,99.90
2023-04-19T23:13:54.080Z,99.90
2023-04-19T23:16:24.168Z,99.90
2023-04-19T23:18:52.165Z,99.90
2023-04-19T23:21:20.117Z,99.90
2023-04-19T23:23:47.988Z,99.90
2023-04-19T23:26:15.853Z,99.90
2023-04-19T23:28:43.707Z,99.90
2023-04-19T23:31:12.944Z,1.00
2023-04-19T23:33:40.835Z,1.00
2023-04-19T23:36:09.170Z,1.00
2023-04-19T23:38:37.028Z,99.90
2023-04-19T23:41:04.917Z,99.90
2023-04-19T23:43:32.829Z,99.90
2023-04-19T23:46:00.727Z,99.90
2023-04-19T23:48:29.967Z,99.90
2023-04-19T23:50:57.839Z,99.90
2023-04-19T23:53:25.998Z,99.90
2023-04-19T23:55:53.922Z,99.90
2023-04-19T23:58:21.785Z,99.90
